Time;durP1;ratioP1;P1;durP2;ratioP2;P2;SDS_P1;SDS_P2;PMS_P1;PMS_P2;Temp;Humidity;BMP_temperature;BMP_pressure;BME280_temperature;BME280_humidity;BME280_pressure;Samples;Min_cycle;Max_cycle;Signal;HPM_P1;HPM_P2
2023/10/31 00:00:23;;;;;;;24.85;14.35;;;11.30;99.90;;;;;;5016516;28;20043;-86
2023/10/31 00:02:49;;;;;;;20.88;13.68;;;11.40;99.90;;;;;;5036011;28;20508;-88
2023/10/31 00:05:15;;;;;;;24.67;14.55;;;11.30;99.90;;;;;;5038912;28;20050;-91
2023/10/31 00:07:40;;;;;;;21.63;13.55;;;11.30;99.90;;;;;;5027551;28;20047;-87
2023/10/31 00:10:06;;;;;;;23.25;14.23;;;11.40;99.90;;;;;;5051592;28;20041;-85
2023/10/31 00:12:32;;;;;;;20.92;13.43;;;11.40;99.90;;;;;;5042932;28;20451;-85
2023/10/31 00:14:58;;;;;;;20.55;13.68;;;11.40;99.90;;;;;;5055558;28;20044;-85
2023/10/31 00:17:24;;;;;;;21.98;15.05;;;11.40;99.90;;;;;;5023013;28;20044;-85
2023/10/31 00:19:49;;;;;;;21.17;13.60;;;11.50;99.90;;;;;;5011243;28;20060;-84
2023/10/31 00:22:15;;;;;;;19.55;12.10;;;11.50;99.90;;;;;;5013709;28;20593;-87
2023/10/31 00:24:41;;;;;;;16.88;11.63;;;11.60;99.90;;;;;;5045981;28;20025;-85
2023/10/31 00:27:06;;;;;;;17.98;11.82;;;11.50;99.90;;;;;;5008838;28;20090;-85
2023/10/31 00:29:32;;;;;;;16.98;11.35;;;11.50;99.90;;;;;;5061442;28;20044;-84
2023/10/31 00:31:58;;;;;;;13.85;9.82;;;11.50;99.90;;;;;;5032587;28;20499;-84
2023/10/31 00:34:23;;;;;;;15.55;10.07;;;11.50;99.90;;;;;;5014569;28;20047;-84
2023/10/31 00:36:50;;;;;;;16.55;10.52;;;11.50;99.90;;;;;;5053458;28;20044;-85
2023/10/31 00:39:16;;;;;;;15.43;10.15;;;11.50;99.90;;;;;;5044050;28;20025;-84
2023/10/31 00:41:46;;;;;;;14.68;9.38;;;11.50;99.90;;;;;;5052630;28;20085;-85
2023/10/31 00:44:13;;;;;;;15.77;9.32;;;11.50;99.90;;;;;;5034118;28;20400;-85
2023/10/31 00:46:38;;;;;;;14.68;10.10;;;11.50;99.90;;;;;;5053609;28;20041;-85
2023/10/31 00:49:04;;;;;;;15.57;10.10;;;11.50;99.90;;;;;;5042062;28;20044;-84
2023/10/31 00:51:30;;;;;;;18.17;10.85;;;11.50;99.90;;;;;;5059541;28;20037;-85
2023/10/31 00:53:56;;;;;;;22.33;11.80;;;11.50;99.90;;;;;;5055899;28;20551;-85
2023/10/31 00:56:22;;;;;;;18.15;11.60;;;11.50;99.90;;;;;;5065382;28;20480;-85
2023/10/31 00:58:47;;;;;;;20.17;11.50;;;11.50;99.90;;;;;;5064360;28;20404;-85
2023/10/31 01:01:14;;;;;;;18.58;11.43;;;11.50;99.90;;;;;;5027166;28;20033;-86
2023/10/31 01:03:41;;;;;;;16.40;9.95;;;11.50;99.90;;;;;;5031261;28;20131;-85
2023/10/31 01:06:07;;;;;;;15.02;9.60;;;11.50;99.90;;;;;;5034394;28;20044;-87
2023/10/31 01:08:34;;;;;;;14.05;8.98;;;11.40;99.90;;;;;;5038491;28;20086;-86
2023/10/31 01:11:00;;;;;;;17.30;10.25;;;11.40;99.90;;;;;;5042528;28;20039;-86
2023/10/31 01:13:26;;;;;;;11.05;6.90;;;11.40;99.90;;;;;;5054682;28;20400;-84
2023/10/31 01:15:51;;;;;;;8.20;5.38;;;11.40;99.90;;;;;;5030027;28;20036;-85
2023/10/31 01:18:17;;;;;;;3.30;2.67;;;11.40;99.90;;;;;;5044797;28;20067;-88
2023/10/31 01:20:43;;;;;;;2.33;1.92;;;11.30;99.90;;;;;;5016431;28;20124;-87
2023/10/31 01:23:09;;;;;;;2.30;1.60;;;11.20;99.90;;;;;;5049773;28;20484;-85
2023/10/31 01:25:34;;;;;;;2.97;1.25;;;11.10;99.90;;;;;;5053689;28;20044;-87
2023/10/31 01:28:00;;;;;;;1.42;0.95;;;11.00;99.90;;;;;;5035435;28;20378;-89
2023/10/31 01:30:26;;;;;;;1.60;0.90;;;11.00;99.90;;;;;;5037186;28;20101;-85
2023/10/31 01:32:51;;;;;;;2.25;1.00;;;10.90;99.90;;;;;;5050744;28;20188;-90
2023/10/31 01:35:17;;;;;;;1.10;0.70;;;10.80;99.90;;;;;;5013245;28;20056;-86
2023/10/31 01:37:43;;;;;;;1.90;0.70;;;10.70;99.90;;;;;;5031407;28;20125;-89
2023/10/31 01:40:12;;;;;;;0.93;0.60;;;10.70;99.90;;;;;;5066165;28;20702;-83
2023/10/31 01:42:38;;;;;;;1.63;0.67;;;10.60;99.90;;;;;;5037764;28;20031;-88
2023/10/31 01:45:04;;;;;;;1.40;0.87;;;10.50;99.90;;;;;;5046427;28;20488;-90
2023/10/31 01:47:30;;;;;;;1.07;0.80;;;10.50;99.90;;;;;;5054194;28;20051;-90
2023/10/31 01:49:55;;;;;;;1.07;0.80;;;10.40;99.90;;;;;;5058569;28;20120;-89
2023/10/31 01:52:21;;;;;;;0.70;0.67;;;10.50;99.90;;;;;;5045904;28;20476;-84
2023/10/31 01:54:47;;;;;;;1.17;0.60;;;10.40;99.90;;;;;;5060482;28;20043;-85
2023/10/31 01:57:14;;;;;;;1.77;0.80;;;10.40;99.90;;;;;;5033791;28;20102;-90
2023/10/31 01:59:40;;;;;;;1.53;0.80;;;10.40;99.90;;;;;;5033055;28;20033;-93
2023/10/31 02:02:06;;;;;;;2.73;1.10;;;10.30;99.90;;;;;;5056443;28;20431;-90
2023/10/31 02:04:31;;;;;;;1.90;0.90;;;10.30;99.90;;;;;;5037148;28;20662;-88
2023/10/31 02:06:57;;;;;;;2.50;0.90;;;10.30;99.90;;;;;;5057104;28;20128;-88
2023/10/31 02:09:27;;;;;;;4.03;1.00;;;10.30;99.90;;;;;;5067281;28;20127;-86
2023/10/31 02:11:52;;;;;;;2.73;0.80;;;10.30;99.90;;;;;;5056341;28;20369;-88
2023/10/31 02:14:18;;;;;;;3.30;1.00;;;10.20;99.90;;;;;;5057253;28;20039;-88
2023/10/31 02:16:44;;;;;;;2.90;1.20;;;10.20;99.90;;;;;;5056943;28;20718;-90
2023/10/31 02:19:12;;;;;;;1.50;1.00;;;10.20;99.90;;;;;;5035191;28;20119;-91
2023/10/31 02:21:39;;;;;;;2.57;1.00;;;10.10;99.90;;;;;;5054650;28;20110;-89
2023/10/31 02:24:05;;;;;;;4.10;1.23;;;10.10;99.90;;;;;;5056544;28;20446;-86
2023/10/31 02:26:33;;;;;;;3.97;1.23;;;10.10;99.90;;;;;;5029461;28;20033;-85
2023/10/31 02:28:59;;;;;;;4.83;1.20;;;10.10;99.90;;;;;;5055541;28;20037;-85
2023/10/31 02:31:26;;;;;;;4.77;1.10;;;10.00;99.90;;;;;;5072098;28;20036;-85
2023/10/31 02:33:52;;;;;;;2.87;1.00;;;10.00;99.90;;;;;;5047222;28;20040;-86
2023/10/31 02:36:18;;;;;;;1.33;1.00;;;10.00;99.90;;;;;;5052742;28;20040;-85
2023/10/31 02:38:44;;;;;;;5.83;1.37;;;10.00;99.90;;;;;;5055889;28;20812;-84
2023/10/31 02:41:10;;;;;;;2.03;1.10;;;10.00;99.90;;;;;;5050069;28;20093;-89
2023/10/31 02:43:36;;;;;;;4.50;1.17;;;10.00;99.90;;;;;;5046519;28;20033;-88
2023/10/31 02:46:02;;;;;;;2.93;1.00;;;10.00;99.90;;;;;;5025003;28;20036;-84
2023/10/31 02:48:29;;;;;;;3.80;1.33;;;10.00;99.90;;;;;;5047238;28;20045;-85
2023/10/31 02:50:54;;;;;;;4.17;1.40;;;10.00;99.90;;;;;;5036590;28;20040;-86
2023/10/31 02:53:20;;;;;;;3.70;1.90;;;10.00;99.90;;;;;;5015857;28;20073;-85
2023/10/31 02:55:46;;;;;;;4.13;1.27;;;10.00;99.90;;;;;;5053837;28;21320;-83
2023/10/31 02:58:12;;;;;;;3.10;1.33;;;10.00;99.90;;;;;;5054953;28;20048;-83
2023/10/31 03:00:37;;;;;;;2.43;1.30;;;10.00;99.90;;;;;;5053561;28;20157;-87
2023/10/31 03:03:04;;;;;;;3.73;1.37;;;10.10;99.90;;;;;;5064997;28;20182;-83
2023/10/31 03:05:30;;;;;;;4.73;1.70;;;10.10;99.90;;;;;;5037315;28;20036;-83
2023/10/31 03:07:56;;;;;;;4.17;1.37;;;10.10;99.90;;;;;;5048096;28;20120;-85
2023/10/31 03:10:21;;;;;;;4.33;1.50;;;10.10;99.90;;;;;;5038116;28;20036;-86
2023/10/31 03:12:47;;;;;;;3.83;1.47;;;10.00;99.90;;;;;;5069416;28;20098;-87
2023/10/31 03:15:13;;;;;;;4.70;1.80;;;10.10;99.90;;;;;;5031918;28;20047;-84
2023/10/31 03:17:39;;;;;;;4.97;1.73;;;10.10;99.90;;;;;;5051255;28;20668;-86
2023/10/31 03:20:05;;;;;;;3.60;1.90;;;10.10;99.90;;;;;;5043760;28;20408;-84
2023/10/31 03:22:31;;;;;;;5.07;1.97;;;10.10;99.90;;;;;;5047049;28;20048;-86
2023/10/31 03:24:57;;;;;;;5.70;2.23;;;10.10;99.90;;;;;;5043406;28;20033;-88
2023/10/31 03:27:22;;;;;;;6.37;2.53;;;10.10;99.90;;;;;;5011165;28;20450;-85
2023/10/31 03:29:48;;;;;;;4.33;2.70;;;10.10;99.90;;;;;;5005897;28;20083;-84
2023/10/31 03:32:15;;;;;;;3.57;2.57;;;10.10;99.90;;;;;;5032215;28;20124;-84
2023/10/31 03:34:41;;;;;;;3.63;2.70;;;10.20;99.90;;;;;;5051031;28;20135;-89
2023/10/31 03:37:07;;;;;;;6.10;2.87;;;10.20;99.90;;;;;;5046208;28;20228;-84
2023/10/31 03:39:33;;;;;;;5.93;3.60;;;10.10;99.90;;;;;;5070514;28;20090;-87
2023/10/31 03:41:59;;;;;;;6.70;3.47;;;10.10;99.90;;;;;;5053464;28;20036;-84
2023/10/31 03:44:25;;;;;;;7.53;3.97;;;10.10;99.90;;;;;;5046468;28;20119;-83
2023/10/31 03:46:50;;;;;;;7.00;3.87;;;10.20;99.90;;;;;;5053828;28;20127;-84
2023/10/31 03:49:16;;;;;;;5.57;3.90;;;10.20;99.90;;;;;;5053532;28;20051;-88
2023/10/31 03:51:42;;;;;;;6.00;3.80;;;10.20;99.90;;;;;;5067696;28;20044;-83
2023/10/31 03:54:08;;;;;;;6.40;4.10;;;10.20;99.90;;;;;;5049607;28;20037;-85
2023/10/31 03:56:41;;;;;;;7.53;4.40;;;10.20;99.90;;;;;;5053800;28;20045;-88
2023/10/31 03:59:06;;;;;;;6.77;4.33;;;10.20;99.90;;;;;;5054327;28;20373;-83
2023/10/31 04:01:32;;;;;;;5.97;3.97;;;10.20;99.90;;;;;;5047989;28;20044;-85
2023/10/31 04:03:58;;;;;;;7.20;4.03;;;10.20;99.90;;;;;;5054311;28;20039;-88
2023/10/31 04:06:23;;;;;;;7.07;4.10;;;10.20;99.90;;;;;;5018345;28;20606;-91
2023/10/31 04:08:49;;;;;;;7.73;3.80;;;10.20;99.90;;;;;;5063764;28;20041;-85
2023/10/31 04:11:15;;;;;;;6.33;3.67;;;10.20;99.90;;;;;;5032978;28;20033;-85
2023/10/31 04:13:40;;;;;;;8.33;3.47;;;10.20;99.90;;;;;;5034345;28;20040;-88
2023/10/31 04:16:07;;;;;;;7.70;3.63;;;10.20;99.90;;;;;;5025082;28;20151;-83
2023/10/31 04:18:32;;;;;;;9.53;3.97;;;10.20;99.90;;;;;;5053860;28;20052;-85
2023/10/31 04:20:58;;;;;;;5.17;3.43;;;10.30;99.90;;;;;;5035063;28;20411;-84
2023/10/31 04:23:24;;;;;;;6.30;3.30;;;10.30;99.90;;;;;;5036317;28;20097;-85
2023/10/31 04:25:50;;;;;;;5.37;3.13;;;10.30;99.90;;;;;;5048863;28;20037;-86
2023/10/31 04:28:16;;;;;;;5.53;3.20;;;10.30;99.90;;;;;;5053576;28;20044;-87
2023/10/31 04:30:42;;;;;;;5.10;3.27;;;10.30;99.90;;;;;;5047823;28;20385;-84
2023/10/31 04:33:07;;;;;;;7.07;3.33;;;10.30;99.90;;;;;;5043404;28;20059;-84
2023/10/31 04:35:33;;;;;;;4.93;3.37;;;10.30;99.90;;;;;;5048996;28;20046;-86
2023/10/31 04:37:59;;;;;;;5.50;3.43;;;10.30;99.90;;;;;;5051613;28;20079;-84
2023/10/31 04:40:24;;;;;;;5.83;3.30;;;10.30;99.90;;;;;;5047702;28;20120;-84
2023/10/31 04:42:50;;;;;;;4.30;3.00;;;10.40;99.90;;;;;;5049665;28;20024;-85
2023/10/31 04:45:16;;;;;;;5.90;3.27;;;10.30;99.90;;;;;;5044222;28;20041;-86
2023/10/31 04:47:42;;;;;;;6.60;3.40;;;10.30;99.90;;;;;;5024036;28;20036;-83
2023/10/31 04:50:08;;;;;;;4.07;3.07;;;10.30;99.90;;;;;;5066864;28;20048;-84
2023/10/31 04:52:34;;;;;;;5.50;2.87;;;10.30;99.90;;;;;;5030166;28;20052;-84
2023/10/31 04:54:59;;;;;;;6.33;2.37;;;10.40;99.90;;;;;;5069339;28;20040;-86
2023/10/31 04:57:25;;;;;;;4.53;1.80;;;10.40;99.90;;;;;;5050691;28;20041;-88
2023/10/31 04:59:52;;;;;;;3.40;1.70;;;10.30;99.90;;;;;;5067756;28;20032;-86
2023/10/31 05:02:17;;;;;;;3.30;1.70;;;10.30;99.90;;;;;;5017077;28;20073;-84
2023/10/31 05:04:43;;;;;;;3.13;1.43;;;10.40;99.90;;;;;;5036375;28;20040;-87
2023/10/31 05:07:09;;;;;;;3.90;1.70;;;10.40;99.90;;;;;;5052828;28;20048;-87
2023/10/31 05:09:35;;;;;;;4.37;1.90;;;10.40;99.90;;;;;;5031278;28;20119;-84
2023/10/31 05:12:01;;;;;;;3.73;1.70;;;10.40;99.90;;;;;;5047346;28;20534;-86
2023/10/31 05:14:27;;;;;;;3.53;1.90;;;10.40;99.90;;;;;;5033143;28;20036;-88
2023/10/31 05:16:52;;;;;;;3.70;1.53;;;10.40;99.90;;;;;;5034049;28;20043;-85
2023/10/31 05:19:18;;;;;;;2.77;1.50;;;10.40;99.90;;;;;;5051973;28;20032;-87
2023/10/31 05:21:44;;;;;;;3.03;1.57;;;10.40;99.90;;;;;;5047344;28;20061;-87
2023/10/31 05:24:09;;;;;;;4.70;1.70;;;10.40;99.90;;;;;;5050214;28;20143;-85
2023/10/31 05:26:35;;;;;;;4.23;1.67;;;10.40;99.90;;;;;;5036219;28;20063;-84
2023/10/31 05:29:01;;;;;;;3.37;1.70;;;10.30;99.90;;;;;;5052317;28;20041;-90
2023/10/31 05:31:26;;;;;;;4.73;1.50;;;10.30;99.90;;;;;;5035789;28;20037;-84
2023/10/31 05:33:52;;;;;;;4.03;1.33;;;10.30;99.90;;;;;;5031158;28;20044;-85
2023/10/31 05:36:27;;;;;;;4.20;1.40;;;10.30;99.90;;;;;;5068051;28;20083;-87
2023/10/31 05:38:53;;;;;;;3.00;1.67;;;10.30;99.90;;;;;;5062991;28;20052;-87
2023/10/31 05:41:19;;;;;;;4.47;1.60;;;10.30;99.90;;;;;;5028103;28;20037;-85
2023/10/31 05:43:45;;;;;;;3.87;1.20;;;10.30;99.90;;;;;;5036521;28;20060;-85
2023/10/31 05:46:13;;;;;;;2.63;0.90;;;10.40;99.90;;;;;;5074019;28;20036;-86
2023/10/31 05:48:40;;;;;;;2.33;0.90;;;10.30;99.90;;;;;;5056848;28;20518;-85
2023/10/31 05:51:14;;;;;;;2.77;0.90;;;10.30;99.90;;;;;;5038453;28;20045;-85
2023/10/31 05:53:40;;;;;;;1.07;0.90;;;10.30;99.90;;;;;;5037071;28;20044;-88
2023/10/31 05:56:07;;;;;;;3.87;0.90;;;10.30;99.90;;;;;;5056228;28;20040;-85
2023/10/31 05:58:33;;;;;;;2.33;0.87;;;10.30;99.90;;;;;;5056372;28;20063;-87
2023/10/31 06:00:59;;;;;;;2.93;1.00;;;10.30;99.90;;;;;;5030403;28;20033;-85
2023/10/31 06:03:24;;;;;;;2.13;1.10;;;10.30;99.90;;;;;;5067084;28;20077;-86
2023/10/31 06:05:50;;;;;;;3.13;0.90;;;10.30;99.90;;;;;;5051334;28;20366;-87
2023/10/31 06:08:16;;;;;;;2.20;0.97;;;10.20;99.90;;;;;;5052429;28;20472;-85
2023/10/31 06:10:41;;;;;;;3.73;1.13;;;10.20;99.90;;;;;;5055757;28;20048;-86
2023/10/31 06:13:07;;;;;;;1.93;0.93;;;10.20;99.90;;;;;;5012544;28;20476;-89
2023/10/31 06:15:33;;;;;;;4.13;1.10;;;10.20;99.90;;;;;;5030164;28;20040;-90
2023/10/31 06:17:58;;;;;;;1.37;1.10;;;10.20;99.90;;;;;;5033156;28;20040;-89
2023/10/31 06:20:24;;;;;;;3.13;1.20;;;10.20;99.90;;;;;;5047738;28;20455;-87
2023/10/31 06:22:50;;;;;;;2.90;1.20;;;10.20;99.90;;;;;;5044656;28;20053;-87
2023/10/31 06:25:15;;;;;;;4.70;1.30;;;10.20;99.90;;;;;;5051229;28;20041;-87
2023/10/31 06:27:41;;;;;;;3.20;1.30;;;10.20;99.90;;;;;;5032368;28;20064;-84
2023/10/31 06:30:07;;;;;;;1.73;1.30;;;10.20;99.90;;;;;;5036437;28;20041;-85
2023/10/31 06:32:33;;;;;;;4.80;1.50;;;10.20;99.90;;;;;;5019693;28;20431;-88
2023/10/31 06:34:59;;;;;;;2.20;1.50;;;10.20;99.90;;;;;;5039515;28;20044;-90
2023/10/31 06:37:25;;;;;;;3.07;1.60;;;10.20;99.90;;;;;;5019161;28;20175;-85
2023/10/31 06:39:51;;;;;;;3.77;1.53;;;10.20;99.90;;;;;;5052617;28;20115;-86
2023/10/31 06:42:17;;;;;;;3.97;1.90;;;10.20;99.90;;;;;;5049014;28;20186;-90
2023/10/31 06:44:42;;;;;;;4.47;1.80;;;10.20;99.90;;;;;;5027523;28;20135;-86
2023/10/31 06:47:08;;;;;;;3.73;1.93;;;10.20;99.90;;;;;;5066104;28;20047;-86
2023/10/31 06:49:34;;;;;;;5.73;2.23;;;10.20;99.90;;;;;;5044634;28;20400;-83
2023/10/31 06:51:59;;;;;;;4.00;2.20;;;10.20;99.90;;;;;;5022257;28;20044;-83
2023/10/31 06:54:25;;;;;;;4.67;2.40;;;10.20;99.90;;;;;;5029502;28;20036;-83
2023/10/31 06:56:51;;;;;;;3.70;3.03;;;10.30;99.90;;;;;;5042430;28;20099;-85
2023/10/31 06:59:17;;;;;;;4.13;2.60;;;10.30;99.90;;;;;;5046828;28;20036;-83
2023/10/31 07:01:45;;;;;;;4.47;3.20;;;10.30;99.90;;;;;;5044665;28;20381;-82
2023/10/31 07:04:10;;;;;;;6.10;3.43;;;10.30;99.90;;;;;;5044183;28;20071;-85
2023/10/31 07:06:36;;;;;;;4.40;3.47;;;10.30;99.90;;;;;;5014187;28;20340;-82
2023/10/31 07:09:05;;;;;;;7.33;3.80;;;10.30;99.90;;;;;;5041609;28;20044;-83
2023/10/31 07:11:33;;;;;;;6.43;4.20;;;10.30;99.90;;;;;;5044321;28;20102;-83
2023/10/31 07:14:02;;;;;;;5.80;4.50;;;10.30;99.90;;;;;;5050449;28;20036;-86
2023/10/31 07:16:28;;;;;;;9.43;4.57;;;10.30;99.90;;;;;;5070484;28;20043;-83
2023/10/31 07:18:53;;;;;;;8.77;4.87;;;10.30;99.90;;;;;;5032870;28;20036;-88
2023/10/31 07:21:20;;;;;;;4.60;4.13;;;10.40;99.90;;;;;;5056146;28;20048;-84
2023/10/31 07:23:46;;;;;;;8.13;4.47;;;10.40;99.90;;;;;;5023166;28;20036;-87
2023/10/31 07:26:11;;;;;;;5.90;4.73;;;10.40;99.90;;;;;;5055402;28;20033;-83
2023/10/31 07:28:37;;;;;;;7.30;4.47;;;10.40;99.90;;;;;;5039349;28;20107;-82
2023/10/31 07:31:04;;;;;;;10.97;4.90;;;10.40;99.90;;;;;;5071757;28;20567;-82
2023/10/31 07:33:30;;;;;;;9.17;5.07;;;10.50;99.90;;;;;;5038919;28;20075;-83
2023/10/31 07:35:56;;;;;;;7.27;4.47;;;10.40;99.90;;;;;;5070855;28;20064;-82
2023/10/31 07:38:21;;;;;;;6.27;4.83;;;10.50;99.90;;;;;;5049393;28;20044;-85
2023/10/31 07:40:48;;;;;;;7.10;4.53;;;10.50;99.90;;;;;;5048766;28;20048;-84
2023/10/31 07:43:15;;;;;;;9.70;5.03;;;10.50;99.90;;;;;;5053962;28;20099;-85
2023/10/31 07:45:41;;;;;;;7.43;4.77;;;10.50;99.90;;;;;;5038144;28;20040;-84
2023/10/31 07:48:07;;;;;;;7.10;5.37;;;10.60;99.90;;;;;;5049343;28;20037;-82
2023/10/31 07:50:33;;;;;;;7.63;4.77;;;10.50;99.90;;;;;;5043966;28;20045;-84
2023/10/31 07:52:59;;;;;;;8.37;4.77;;;10.60;99.90;;;;;;5032668;28;20039;-83
2023/10/31 07:55:25;;;;;;;6.47;4.60;;;10.60;99.90;;;;;;5051581;28;20090;-83
2023/10/31 07:57:51;;;;;;;7.53;4.53;;;10.70;99.90;;;;;;5053437;28;20396;-83
2023/10/31 08:00:16;;;;;;;8.17;4.70;;;10.70;99.90;;;;;;5051270;28;20044;-86
2023/10/31 08:02:42;;;;;;;5.63;4.50;;;10.70;99.90;;;;;;5071156;28;20554;-83
2023/10/31 08:05:10;;;;;;;6.50;4.20;;;10.80;99.90;;;;;;5071263;28;20040;-83
2023/10/31 08:07:35;;;;;;;7.10;3.77;;;10.80;99.90;;;;;;5052300;28;20170;-84
2023/10/31 08:10:03;;;;;;;6.87;3.80;;;10.80;99.90;;;;;;5069752;28;20139;-84
2023/10/31 08:12:29;;;;;;;7.60;3.50;;;10.80;99.90;;;;;;5037506;28;20056;-83
2023/10/31 08:14:55;;;;;;;7.85;3.35;;;10.90;99.90;;;;;;5049461;28;20051;-85
2023/10/31 08:17:21;;;;;;;4.77;2.97;;;10.90;99.90;;;;;;5042219;28;20059;-84
2023/10/31 08:19:47;;;;;;;6.43;2.73;;;10.90;99.90;;;;;;5042702;28;20037;-83
2023/10/31 08:22:13;;;;;;;4.10;2.50;;;11.00;99.90;;;;;;5044272;28;20056;-83
2023/10/31 08:24:39;;;;;;;4.80;2.27;;;11.00;99.90;;;;;;5051269;28;20037;-85
2023/10/31 08:27:05;;;;;;;5.65;2.15;;;11.00;99.90;;;;;;5053616;28;20037;-84
2023/10/31 08:29:31;;;;;;;5.40;2.00;;;11.10;99.90;;;;;;5054241;28;20044;-83
2023/10/31 08:31:57;;;;;;;3.10;1.50;;;11.10;99.90;;;;;;5054361;28;20052;-84
2023/10/31 08:34:23;;;;;;;4.20;1.50;;;11.10;99.90;;;;;;5054302;28;20063;-83
2023/10/31 08:36:49;;;;;;;4.50;1.73;;;11.20;99.90;;;;;;5060389;28;20041;-83
2023/10/31 08:39:14;;;;;;;3.63;1.50;;;11.20;99.90;;;;;;5038624;28;20048;-86
2023/10/31 08:41:57;;;;;;;4.32;2.00;;;11.20;99.90;;;;;;5046054;28;20377;-86
2023/10/31 08:44:23;;;;;;;3.45;1.20;;;11.20;99.90;;;;;;5064874;28;20143;-84
2023/10/31 08:46:49;;;;;;;2.90;1.15;;;11.20;99.90;;;;;;5060171;28;20083;-84
2023/10/31 08:49:15;;;;;;;3.65;1.00;;;11.20;99.90;;;;;;5053938;28;20559;-86
2023/10/31 08:51:42;;;;;;;2.88;0.98;;;11.20;99.90;;;;;;5071198;28;20127;-86
2023/10/31 08:54:09;;;;;;;2.55;1.33;;;11.20;99.90;;;;;;5053995;28;20041;-89
2023/10/31 08:56:35;;;;;;;4.15;1.20;;;11.30;99.90;;;;;;5054255;28;20037;-87
2023/10/31 08:59:01;;;;;;;2.92;1.00;;;11.30;99.90;;;;;;5053741;28;20044;-86
2023/10/31 09:01:28;;;;;;;1.80;0.90;;;11.30;99.90;;;;;;5038727;28;20033;-85
2023/10/31 09:03:55;;;;;;;2.38;1.00;;;11.30;99.90;;;;;;5021985;28;20392;-85
2023/10/31 09:06:20;;;;;;;3.63;1.10;;;11.30;99.90;;;;;;5037974;28;20040;-87
2023/10/31 09:08:46;;;;;;;3.53;0.98;;;11.30;99.90;;;;;;5054683;28;20040;-87
2023/10/31 09:11:12;;;;;;;2.92;1.00;;;11.30;99.90;;;;;;5057945;28;20059;-86
2023/10/31 09:13:37;;;;;;;4.43;0.95;;;11.30;99.90;;;;;;5041463;28;20044;-83
2023/10/31 09:16:04;;;;;;;2.17;0.90;;;11.30;99.90;;;;;;5041695;28;20036;-85
2023/10/31 09:18:29;;;;;;;2.25;1.00;;;11.30;99.90;;;;;;5074466;28;20044;-83
2023/10/31 09:20:55;;;;;;;0.80;0.60;;;11.30;99.90;;;;;;5040789;28;20136;-82
2023/10/31 09:23:21;;;;;;;1.23;0.63;;;11.30;99.90;;;;;;5024297;28;20033;-84
2023/10/31 09:25:47;;;;;;;2.15;0.70;;;11.30;99.90;;;;;;5074208;28;20559;-83
2023/10/31 09:28:12;;;;;;;1.88;0.50;;;11.40;99.90;;;;;;5035071;28;20044;-82
2023/10/31 09:30:38;;;;;;;1.77;0.73;;;11.40;99.90;;;;;;5065183;28;20044;-82
2023/10/31 09:33:04;;;;;;;1.00;0.80;;;11.30;99.90;;;;;;5073233;28;20045;-85
2023/10/31 09:35:30;;;;;;;3.10;0.75;;;11.30;99.90;;;;;;5056522;28;20048;-86
2023/10/31 09:37:55;;;;;;;0.88;0.60;;;11.30;99.90;;;;;;5057215;28;20193;-84
2023/10/31 09:40:21;;;;;;;2.92;0.75;;;11.30;99.90;;;;;;5040494;28;20036;-86
2023/10/31 09:42:49;;;;;;;2.63;0.98;;;11.30;99.90;;;;;;5072860;28;20391;-82
2023/10/31 09:45:15;;;;;;;2.80;0.93;;;11.30;99.90;;;;;;5065298;28;20093;-80
2023/10/31 09:47:42;;;;;;;3.50;0.73;;;11.30;99.90;;;;;;5055534;28;20044;-86
2023/10/31 09:50:09;;;;;;;1.77;0.80;;;11.30;99.90;;;;;;5057198;28;20044;-84
2023/10/31 09:52:38;;;;;;;1.13;0.63;;;11.30;99.90;;;;;;5073754;28;20086;-83
2023/10/31 09:55:05;;;;;;;2.83;0.70;;;11.40;99.90;;;;;;5054008;28;20052;-83
2023/10/31 09:57:31;;;;;;;2.08;0.80;;;11.40;99.90;;;;;;5040287;28;20044;-84
2023/10/31 09:59:57;;;;;;;2.03;0.90;;;11.40;99.90;;;;;;5073835;28;20397;-83
2023/10/31 10:02:23;;;;;;;2.45;0.70;;;11.40;99.90;;;;;;5040294;28;20036;-85
2023/10/31 10:04:49;;;;;;;2.83;0.60;;;11.50;99.90;;;;;;5057012;28;20044;-83
2023/10/31 10:07:19;;;;;;;3.45;0.70;;;11.50;99.90;;;;;;5073641;28;20087;-85
2023/10/31 10:09:48;;;;;;;5.60;0.90;;;11.40;99.90;;;;;;5057095;28;20178;-83
2023/10/31 10:12:16;;;;;;;3.95;1.02;;;11.40;99.90;;;;;;5072966;28;20133;-84
2023/10/31 10:14:44;;;;;;;6.63;0.90;;;11.40;99.90;;;;;;5056143;28;20052;-85
2023/10/31 10:17:19;;;;;;;2.22;0.77;;;11.40;99.90;;;;;;5056189;28;20071;-85
2023/10/31 10:19:45;;;;;;;1.52;0.57;;;11.30;99.90;;;;;;5056099;28;20503;-88
2023/10/31 10:22:11;;;;;;;2.53;0.70;;;11.30;99.90;;;;;;5055827;28;20040;-86
2023/10/31 10:24:40;;;;;;;3.47;0.85;;;11.30;99.90;;;;;;5056589;28;20045;-86
2023/10/31 10:27:08;;;;;;;3.15;0.90;;;11.20;99.90;;;;;;5066021;28;20044;-84
2023/10/31 10:29:34;;;;;;;3.40;0.75;;;11.20;99.90;;;;;;5053239;28;20403;-85
2023/10/31 10:32:00;;;;;;;3.33;0.60;;;11.10;99.90;;;;;;5053498;28;20587;-84
2023/10/31 10:34:26;;;;;;;1.80;0.60;;;11.10;99.90;;;;;;5063162;28;20040;-84
2023/10/31 10:36:54;;;;;;;2.10;0.63;;;11.00;99.90;;;;;;5045319;28;20407;-86
2023/10/31 10:39:22;;;;;;;4.10;0.90;;;11.00;99.90;;;;;;5073822;28;20051;-87
2023/10/31 10:41:55;;;;;;;0.98;0.60;;;10.90;99.90;;;;;;5056164;28;20039;-83
2023/10/31 10:44:32;;;;;;;2.75;0.55;;;11.00;99.90;;;;;;5072584;28;20039;-85
2023/10/31 10:47:00;;;;;;;3.35;0.75;;;11.00;99.90;;;;;;5072681;28;20050;-87
2023/10/31 10:49:28;;;;;;;2.25;0.80;;;11.10;99.90;;;;;;5056201;28;20040;-84
2023/10/31 10:52:02;;;;;;;2.80;0.75;;;11.10;99.90;;;;;;5055628;28;20109;-85
2023/10/31 10:54:46;;;;;;;4.45;0.70;;;11.20;99.90;;;;;;5072574;28;20044;-86
2023/10/31 10:57:19;;;;;;;4.40;0.70;;;11.30;99.90;;;;;;5044217;28;20120;-85
2023/10/31 10:59:52;;;;;;;4.95;0.73;;;11.40;99.90;;;;;;5055583;28;20123;-84
2023/10/31 11:02:19;;;;;;;7.03;0.70;;;11.60;99.90;;;;;;5048780;28;20091;-87
2023/10/31 11:04:45;;;;;;;1.92;0.80;;;11.70;99.90;;;;;;5069053;28;20050;-84
2023/10/31 11:07:12;;;;;;;3.42;0.90;;;11.90;99.90;;;;;;5070849;28;20051;-87
2023/10/31 11:09:38;;;;;;;5.43;0.90;;;12.00;99.90;;;;;;5055466;28;20070;-85
2023/10/31 11:12:04;;;;;;;5.28;0.80;;;12.00;99.90;;;;;;5055401;28;20036;-87
2023/10/31 11:14:34;;;;;;;4.30;0.82;;;12.00;99.90;;;;;;5053325;28;20094;-85
2023/10/31 11:17:11;;;;;;;3.38;0.80;;;11.90;99.90;;;;;;5035779;28;20052;-84
2023/10/31 11:19:37;;;;;;;2.78;0.70;;;11.90;99.90;;;;;;5041998;28;20033;-84
2023/10/31 11:22:06;;;;;;;1.70;0.70;;;11.80;99.90;;;;;;5035220;28;20067;-89
2023/10/31 11:24:33;;;;;;;6.25;0.90;;;11.80;99.90;;;;;;5072174;28;20174;-83
2023/10/31 11:27:02;;;;;;;2.47;0.80;;;11.70;99.90;;;;;;5055386;28;20069;-85
2023/10/31 11:29:27;;;;;;;3.10;0.82;;;11.70;99.90;;;;;;5072007;28;20071;-84
2023/10/31 11:31:57;;;;;;;2.95;0.88;;;11.60;99.90;;;;;;5053486;28;20377;-84
2023/10/31 11:34:26;;;;;;;5.53;1.17;;;11.70;99.90;;;;;;5054472;28;20044;-86
2023/10/31 11:36:52;;;;;;;1.88;0.68;;;11.60;99.90;;;;;;5038784;28;20123;-85
2023/10/31 11:39:22;;;;;;;5.22;1.00;;;11.60;99.90;;;;;;5018525;28;20111;-84
2023/10/31 11:41:55;;;;;;;3.55;1.00;;;11.60;99.90;;;;;;5054602;28;20044;-84
2023/10/31 11:44:27;;;;;;;6.22;1.05;;;11.60;99.90;;;;;;5071552;28;20032;-85
2023/10/31 11:46:53;;;;;;;3.17;0.98;;;11.60;99.90;;;;;;5055374;28;20424;-83
2023/10/31 11:49:48;;;;;;;2.75;0.85;;;11.50;99.90;;;;;;5054994;28;20063;-85
2023/10/31 11:52:18;;;;;;;4.70;1.15;;;11.50;99.90;;;;;;5046729;28;20146;-84
2023/10/31 11:54:44;;;;;;;2.05;0.82;;;11.40;99.90;;;;;;5071546;28;20515;-84
2023/10/31 11:57:10;;;;;;;4.38;1.00;;;11.40;99.90;;;;;;5054695;28;20042;-84
2023/10/31 11:59:40;;;;;;;1.58;0.73;;;11.30;99.90;;;;;;5054914;28;20039;-86
2023/10/31 12:02:15;;;;;;;3.75;0.70;;;11.30;99.90;;;;;;5070261;28;20041;-85
2023/10/31 12:04:41;;;;;;;3.95;0.90;;;11.30;99.90;;;;;;5054126;28;20044;-86
2023/10/31 12:07:08;;;;;;;3.05;0.88;;;11.20;99.90;;;;;;5038299;28;20119;-88
2023/10/31 12:09:44;;;;;;;3.70;1.10;;;11.30;99.90;;;;;;5053661;28;20048;-87
2023/10/31 12:12:10;;;;;;;4.38;0.98;;;11.30;99.90;;;;;;5041600;28;20048;-85
2023/10/31 12:14:36;;;;;;;4.57;0.88;;;11.40;99.90;;;;;;5070262;28;20464;-87
2023/10/31 12:17:06;;;;;;;1.65;0.70;;;11.50;99.90;;;;;;5054134;28;20041;-87
2023/10/31 12:19:33;;;;;;;6.20;1.08;;;11.50;99.90;;;;;;5045841;28;20028;-87
2023/10/31 12:21:58;;;;;;;2.38;0.70;;;11.60;99.90;;;;;;5053840;28;20053;-89
2023/10/31 12:24:24;;;;;;;5.00;1.00;;;11.60;99.90;;;;;;5054348;28;20728;-87
2023/10/31 12:26:51;;;;;;;2.42;0.80;;;11.60;99.90;;;;;;5050522;28;20123;-91
2023/10/31 12:29:19;;;;;;;4.88;0.63;;;11.70;99.90;;;;;;5070751;28;20561;-90
2023/10/31 12:31:51;;;;;;;4.20;1.10;;;11.70;99.90;;;;;;5070322;28;20046;-90
2023/10/31 12:34:19;;;;;;;5.00;0.90;;;11.60;99.90;;;;;;5054330;28;20051;-87
2023/10/31 12:36:47;;;;;;;4.53;0.98;;;11.70;99.90;;;;;;5053904;28;20036;-87
2023/10/31 12:39:13;;;;;;;2.88;0.90;;;11.70;99.90;;;;;;5052115;28;20032;-91
2023/10/31 12:41:39;;;;;;;2.85;0.80;;;11.80;99.90;;;;;;5070169;28;20052;-88